Terminal Aerodrome Forecast
Issued by NWS Tuscon, AZ

Home | Current Version | Previous Version | Text Only | Print | Product List | Glossary On
Versions: 1 2 3 4 5 6 7 8 9 10 11 12
569
FTUS45 KTWC 081738
TAFDUG
TAF
KDUG 081738Z 0818/0918 09011G18KT P6SM BKN250
     FM090200 05009KT P6SM SCT250
     FM091000 VRB04KT P6SM SKC=

USA.gov is the U.S. government's official web portal to all federal, state and local government web resources and services.